Time;durP1;ratioP1;P1;durP2;ratioP2;P2;SDS_P1;SDS_P2;PMS_P1;PMS_P2;Temp;Humidity;BMP_temperature;BMP_pressure;BME280_temperature;BME280_humidity;BME280_pressure;Samples;Min_cycle;Max_cycle;Signal;HPM_P1;HPM_P2
2022/05/31 00:00:37;;;;;;;9.93;5.00;;;;;;;19.71;58.27;94927.94;4962212;28;20272;-64
2022/05/31 00:03:05;;;;;;;9.52;5.05;;;;;;;19.77;57.99;94938.56;4964306;28;20294;-62
2022/05/31 00:05:32;;;;;;;6.88;4.82;;;;;;;19.76;57.63;94926.28;4965640;28;20220;-71
2022/05/31 00:07:57;;;;;;;5.80;4.55;;;;;;;19.75;57.59;94921.97;4961595;28;20248;-69
2022/05/31 00:10:23;;;;;;;7.18;4.50;;;;;;;19.74;57.89;94917.66;4965128;28;20239;-71
2022/05/31 00:12:48;;;;;;;8.48;4.32;;;;;;;19.64;58.11;94911.91;4963777;28;20276;-64
2022/05/31 00:15:18;;;;;;;7.43;4.63;;;;;;;19.85;57.24;94918.84;4960017;28;20228;-64
2022/05/31 00:17:44;;;;;;;7.28;4.53;;;;;;;19.91;56.95;94917.16;5006057;28;20252;-64
2022/05/31 00:20:12;;;;;;;8.98;5.13;;;;;;;19.93;56.53;94915.13;4967435;28;20330;-70
2022/05/31 00:22:42;;;;;;;6.20;4.72;;;;;;;19.85;57.05;94912.69;4951356;28;20216;-62
2022/05/31 00:25:10;;;;;;;6.40;4.45;;;;;;;19.80;56.99;94914.13;4976126;28;20215;-70
2022/05/31 00:27:35;;;;;;;7.25;4.72;;;;;;;19.87;56.70;94916.78;4964062;28;20227;-67
2022/05/31 00:30:02;;;;;;;6.88;4.40;;;;;;;19.93;56.82;94915.94;4992751;28;20235;-62
2022/05/31 00:32:37;;;;;;;6.78;4.70;;;;;;;19.83;57.03;94916.41;4961972;28;20224;-62
2022/05/31 00:35:10;;;;;;;7.15;5.05;;;;;;;19.86;57.35;94917.00;4963640;28;20232;-68
2022/05/31 00:37:36;;;;;;;7.22;5.50;;;;;;;19.78;57.78;94913.53;4998436;28;20207;-67
2022/05/31 00:40:03;;;;;;;5.78;4.55;;;;;;;19.67;58.42;94921.38;4961658;28;20204;-69
2022/05/31 00:42:40;;;;;;;6.45;4.63;;;;;;;19.64;58.55;94922.56;4998882;28;20224;-62
2022/05/31 00:45:06;;;;;;;7.85;4.82;;;;;;;19.51;59.17;94917.28;4998745;28;20239;-68
2022/05/31 00:47:35;;;;;;;6.18;5.05;;;;;;;19.69;58.76;94920.13;4969306;28;20233;-64
2022/05/31 00:50:28;;;;;;;9.93;5.25;;;;;;;19.72;58.51;94925.03;4973371;28;20223;-62
2022/05/31 00:53:02;;;;;;;12.30;4.93;;;;;;;19.44;59.47;94919.97;4969312;28;20245;-69
2022/05/31 00:55:50;;;;;;;10.68;5.47;;;;;;;19.61;58.80;94931.81;4965999;28;20624;-61
2022/05/31 00:58:21;;;;;;;6.47;5.18;;;;;;;19.56;59.40;94926.28;4969325;28;20200;-68
2022/05/31 01:00:47;;;;;;;6.50;4.95;;;;;;;19.49;59.79;94930.03;4974185;28;20248;-69
2022/05/31 01:03:15;;;;;;;9.48;5.10;;;;;;;19.36;60.11;94926.34;4950967;28;20243;-69
2022/05/31 01:05:44;;;;;;;5.65;4.85;;;;;;;19.28;60.67;94931.91;4942327;28;20247;-63
2022/05/31 01:08:10;;;;;;;8.00;5.03;;;;;;;19.31;60.76;94933.34;4943211;28;20267;-64
2022/05/31 01:10:36;;;;;;;6.25;5.15;;;;;;;19.22;60.79;94924.75;4939259;28;20786;-67
2022/05/31 01:13:03;;;;;;;5.95;5.10;;;;;;;19.25;60.69;94939.50;4944649;28;20266;-68
2022/05/31 01:15:28;;;;;;;7.60;5.50;;;;;;;19.11;61.28;94936.00;4957895;28;20236;-63
2022/05/31 01:17:54;;;;;;;6.82;5.07;;;;;;;19.07;61.21;94932.13;4944584;29;20233;-63
2022/05/31 01:20:21;;;;;;;7.80;5.30;;;;;;;19.16;61.23;94937.06;4945799;28;20232;-71
2022/05/31 01:22:56;;;;;;;11.00;5.72;;;;;;;19.06;61.65;94941.13;4940723;28;20228;-66
2022/05/31 01:25:22;;;;;;;8.88;5.38;;;;;;;19.03;61.60;94946.88;4942883;28;20239;-67
2022/05/31 01:28:18;;;;;;;8.32;5.30;;;;;;;19.14;61.04;94946.28;4941991;29;20240;-62
2022/05/31 01:30:56;;;;;;;8.07;5.25;;;;;;;19.06;60.87;94938.47;4956855;28;20243;-68
2022/05/31 01:33:28;;;;;;;6.45;5.20;;;;;;;18.99;61.29;94951.00;4939532;28;20225;-68
2022/05/31 01:36:00;;;;;;;5.93;5.00;;;;;;;18.95;61.62;94942.56;4940713;28;20237;-67
2022/05/31 01:38:32;;;;;;;9.45;5.38;;;;;;;19.12;60.79;94940.34;4949470;28;20236;-64
2022/05/31 01:41:06;;;;;;;7.68;5.00;;;;;;;18.99;61.66;94940.34;4945370;28;20608;-62
2022/05/31 01:43:32;;;;;;;10.70;5.53;;;;;;;18.91;61.75;94933.38;4955782;28;20213;-65
2022/05/31 01:46:10;;;;;;;8.93;5.50;;;;;;;18.88;61.84;94934.59;4948243;29;20224;-69
2022/05/31 01:48:37;;;;;;;9.10;5.72;;;;;;;18.83;62.33;94926.41;4958641;28;20458;-68
2022/05/31 01:51:03;;;;;;;10.98;5.82;;;;;;;18.81;62.24;94928.44;4956441;28;20264;-63
2022/05/31 01:53:30;;;;;;;9.23;5.70;;;;;;;18.82;61.86;94927.44;4960256;28;20315;-63
2022/05/31 01:55:55;;;;;;;7.72;5.60;;;;;;;18.73;62.47;94928.63;4966598;28;20849;-63
2022/05/31 01:58:25;;;;;;;9.82;5.75;;;;;;;18.77;62.28;94931.75;4964596;28;20207;-62
2022/05/31 02:00:52;;;;;;;8.13;5.57;;;;;;;18.84;62.00;94936.03;4983833;28;20231;-61
2022/05/31 02:03:19;;;;;;;7.53;5.45;;;;;;;18.70;62.16;94934.34;5004013;28;20297;-63
2022/05/31 02:05:51;;;;;;;7.78;5.28;;;;;;;18.58;62.45;94933.31;4984124;28;20227;-70
2022/05/31 02:08:18;;;;;;;8.10;4.72;;;;;;;18.62;62.29;94940.69;5001272;28;20294;-63
2022/05/31 02:10:45;;;;;;;9.05;5.57;;;;;;;18.54;62.31;94943.56;5000183;28;20233;-69
2022/05/31 02:13:10;;;;;;;12.38;6.07;;;;;;;18.63;62.04;94938.84;4982944;28;20203;-62
2022/05/31 02:15:36;;;;;;;7.28;5.22;;;;;;;18.62;61.93;94940.69;4986533;28;20269;-62
2022/05/31 02:18:01;;;;;;;6.93;5.20;;;;;;;18.44;62.33;94935.97;4987323;28;20230;-68
2022/05/31 02:20:27;;;;;;;8.38;5.30;;;;;;;18.66;61.92;94944.59;4999636;28;20269;-62
2022/05/31 02:22:52;;;;;;;7.90;5.40;;;;;;;18.37;62.60;94948.44;5000775;28;20247;-62
2022/05/31 02:25:18;;;;;;;9.38;4.72;;;;;;;18.33;62.96;94949.84;4984405;28;20214;-68
2022/05/31 02:27:45;;;;;;;12.57;5.00;;;;;;;18.30;62.35;94952.94;5000480;28;20274;-68
2022/05/31 02:30:11;;;;;;;11.02;5.00;;;;;;;18.34;61.83;94950.69;4987607;28;20325;-64
2022/05/31 02:32:37;;;;;;;6.97;5.22;;;;;;;18.23;62.30;94946.75;4988257;28;20222;-61
2022/05/31 02:35:03;;;;;;;10.50;5.20;;;;;;;18.32;62.05;94950.91;4988899;28;20250;-64
2022/05/31 02:37:29;;;;;;;5.85;5.18;;;;;;;18.35;61.98;94953.16;5000277;28;20297;-64
2022/05/31 02:39:54;;;;;;;7.22;5.32;;;;;;;18.19;62.26;94950.84;4990417;28;20345;-63
2022/05/31 02:42:20;;;;;;;9.35;5.57;;;;;;;18.38;62.00;94952.75;4984032;28;20230;-63
2022/05/31 02:44:46;;;;;;;5.45;4.80;;;;;;;18.47;61.70;94943.56;5001376;28;20242;-62
2022/05/31 02:47:11;;;;;;;8.38;5.68;;;;;;;18.35;62.20;94953.16;5000927;28;20218;-68
2022/05/31 02:49:39;;;;;;;8.32;5.15;;;;;;;18.28;62.44;94950.50;4984227;28;20207;-70
2022/05/31 02:52:04;;;;;;;10.30;4.82;;;;;;;18.39;61.92;94948.22;4986422;28;20214;-66
2022/05/31 02:54:30;;;;;;;6.88;5.15;;;;;;;18.28;62.05;94949.63;4985617;28;20223;-60
2022/05/31 02:56:55;;;;;;;10.95;5.22;;;;;;;18.31;61.98;94949.25;4995029;28;20226;-62
2022/05/31 02:59:24;;;;;;;10.82;5.32;;;;;;;18.14;62.56;94950.63;4981809;28;20229;-62
2022/05/31 03:01:51;;;;;;;6.88;5.10;;;;;;;18.13;62.43;94963.13;4984701;28;20475;-63
2022/05/31 03:04:17;;;;;;;10.07;5.97;;;;;;;18.06;62.72;94967.59;4985246;28;20695;-63
2022/05/31 03:06:43;;;;;;;6.75;5.78;;;;;;;18.05;63.30;94966.78;4988651;28;20225;-69
2022/05/31 03:09:08;;;;;;;8.07;5.72;;;;;;;18.04;63.51;94969.63;4987087;28;20226;-63
2022/05/31 03:11:42;;;;;;;6.43;5.32;;;;;;;18.17;62.90;94974.19;4983990;28;20226;-67
2022/05/31 03:14:19;;;;;;;7.43;5.43;;;;;;;18.24;62.55;94975.03;4980577;28;20270;-62
2022/05/31 03:16:47;;;;;;;7.15;4.78;;;;;;;18.20;63.03;94976.44;4979047;28;20253;-68
2022/05/31 03:19:24;;;;;;;9.65;6.30;;;;;;;18.18;63.13;94966.00;4979749;28;20285;-68
2022/05/31 03:21:59;;;;;;;10.20;5.70;;;;;;;18.08;63.50;94976.22;4978203;28;20227;-62
2022/05/31 03:24:34;;;;;;;7.40;5.75;;;;;;;17.79;64.58;94972.78;4980047;28;20230;-61
2022/05/31 03:27:05;;;;;;;8.90;6.03;;;;;;;17.90;64.73;94983.91;4981349;28;20222;-62
2022/05/31 03:29:31;;;;;;;14.43;6.63;;;;;;;17.41;65.42;94983.00;4984904;28;20231;-70
2022/05/31 03:31:57;;;;;;;10.52;6.15;;;;;;;17.66;65.11;94982.53;4976034;28;20223;-62
2022/05/31 03:34:22;;;;;;;7.15;6.18;;;;;;;17.08;66.70;94988.91;4980647;28;20207;-63
2022/05/31 03:36:48;;;;;;;8.80;6.70;;;;;;;17.25;66.33;94994.75;4983279;28;20210;-61
2022/05/31 03:39:13;;;;;;;11.20;6.30;;;;;;;17.83;64.65;94994.53;4998038;28;20219;-63
2022/05/31 03:41:42;;;;;;;8.30;6.38;;;;;;;17.86;64.12;95004.75;4980233;28;20238;-66
2022/05/31 03:44:08;;;;;;;9.60;6.38;;;;;;;17.95;64.01;95008.88;4978718;28;20315;-61
2022/05/31 03:46:34;;;;;;;7.13;6.30;;;;;;;17.99;63.89;94999.50;4964555;28;20234;-69
2022/05/31 03:49:00;;;;;;;8.75;5.97;;;;;;;18.06;63.81;94996.84;4965323;28;20199;-64
2022/05/31 03:51:25;;;;;;;9.80;6.38;;;;;;;18.00;64.33;95009.13;4961176;28;20235;-62
2022/05/31 03:53:57;;;;;;;11.02;6.32;;;;;;;18.02;64.22;95007.09;4969124;28;20329;-61
2022/05/31 03:56:23;;;;;;;11.02;6.30;;;;;;;18.06;64.37;95005.66;4964452;28;20234;-63
2022/05/31 03:58:49;;;;;;;8.45;6.30;;;;;;;18.11;64.42;95007.72;4972575;28;20223;-69
2022/05/31 04:01:14;;;;;;;8.35;6.90;;;;;;;18.23;63.92;95007.97;4983185;28;20227;-62
2022/05/31 04:03:41;;;;;;;10.98;6.95;;;;;;;18.32;63.53;95009.44;4966532;28;20231;-62
2022/05/31 04:06:07;;;;;;;10.10;7.25;;;;;;;18.45;62.88;95012.16;4964306;28;20293;-70
2022/05/31 04:08:33;;;;;;;7.28;6.57;;;;;;;18.46;62.81;95010.31;4966747;28;20222;-70
2022/05/31 04:10:59;;;;;;;8.88;7.88;;;;;;;18.53;62.55;95005.84;4974628;28;20223;-69
2022/05/31 04:13:25;;;;;;;13.60;8.02;;;;;;;18.57;62.48;95011.56;4988440;28;20289;-69
2022/05/31 04:16:10;;;;;;;12.10;8.43;;;;;;;18.44;62.81;95007.03;4981173;28;20235;-70
2022/05/31 04:18:37;;;;;;;11.50;7.97;;;;;;;18.54;62.72;95006.66;5005078;28;20306;-69
2022/05/31 04:21:04;;;;;;;10.55;8.77;;;;;;;18.58;62.91;95011.38;5001421;28;20296;-65
2022/05/31 04:26:15;;;;;;;12.23;8.77;;;;;;;18.53;62.95;95011.16;4999819;28;20225;-69
2022/05/31 04:28:41;;;;;;;10.45;8.45;;;;;;;18.54;63.21;95023.44;4999986;28;20293;-68
2022/05/31 04:31:07;;;;;;;12.55;8.88;;;;;;;18.64;63.02;95028.38;5001506;28;20261;-62
2022/05/31 04:33:33;;;;;;;11.52;8.60;;;;;;;18.73;62.82;95027.97;4982485;28;20226;-61
2022/05/31 04:36:05;;;;;;;8.90;7.75;;;;;;;18.69;63.00;95025.94;4982776;28;20241;-62
2022/05/31 04:38:33;;;;;;;13.10;8.43;;;;;;;18.71;62.95;95037.19;4982110;28;20814;-61
2022/05/31 04:40:58;;;;;;;12.45;8.60;;;;;;;18.80;62.77;95029.88;4983097;28;20226;-63
2022/05/31 04:43:24;;;;;;;8.88;7.97;;;;;;;18.77;62.73;95025.78;4986714;28;20222;-62
2022/05/31 04:45:50;;;;;;;11.93;8.25;;;;;;;18.75;63.23;95027.81;4981325;28;20198;-68
2022/05/31 04:48:15;;;;;;;11.40;7.85;;;;;;;18.73;63.21;95030.66;4981940;28;20230;-63
2022/05/31 04:50:41;;;;;;;11.10;8.38;;;;;;;18.77;63.22;95027.63;4983293;28;20309;-68
2022/05/31 04:53:06;;;;;;;12.45;8.45;;;;;;;18.98;62.99;95038.13;4984917;28;20219;-66
2022/05/31 04:55:32;;;;;;;9.18;7.55;;;;;;;18.96;63.04;95037.50;4982606;28;20217;-61
2022/05/31 04:57:57;;;;;;;12.68;8.00;;;;;;;18.93;63.04;95038.72;4981364;28;20191;-62
2022/05/31 05:00:23;;;;;;;12.40;7.30;;;;;;;19.01;63.14;95042.22;4982278;28;20245;-70
2022/05/31 05:02:48;;;;;;;11.15;7.50;;;;;;;19.06;62.68;95045.06;4963175;28;20231;-66
2022/05/31 05:05:14;;;;;;;11.98;8.05;;;;;;;19.14;62.61;95050.22;4995205;28;20242;-68
2022/05/31 05:07:40;;;;;;;10.57;8.07;;;;;;;19.24;62.21;95041.81;4994809;28;20230;-61
2022/05/31 05:10:07;;;;;;;15.40;8.57;;;;;;;19.32;62.14;95039.75;4971708;28;20206;-68
2022/05/31 05:12:32;;;;;;;11.00;8.80;;;;;;;19.33;61.97;95041.41;4981389;28;20219;-63
2022/05/31 05:14:58;;;;;;;8.68;7.88;;;;;;;19.36;62.12;95045.53;4983572;28;20284;-68
2022/05/31 05:17:24;;;;;;;10.68;7.13;;;;;;;19.45;61.73;95051.44;4980229;28;20280;-68
2022/05/31 05:19:50;;;;;;;13.70;8.10;;;;;;;19.45;61.59;95052.28;4978415;28;20373;-68
2022/05/31 05:22:15;;;;;;;12.32;7.55;;;;;;;19.57;61.37;95036.47;4996646;28;20484;-61
2022/05/31 05:24:41;;;;;;;10.75;7.60;;;;;;;19.58;61.39;95048.78;4979147;28;20231;-68
2022/05/31 05:27:07;;;;;;;12.90;8.40;;;;;;;19.69;61.05;95042.84;4979449;28;20250;-62
2022/05/31 05:32:16;;;;;;;11.75;8.82;;;;;;;19.53;61.72;95051.25;5001513;28;20225;-62
2022/05/31 05:34:41;;;;;;;10.32;8.00;;;;;;;19.67;61.22;95049.41;4985370;28;20234;-62
2022/05/31 05:37:07;;;;;;;11.80;7.65;;;;;;;19.67;61.53;95047.56;4978993;28;20206;-61
2022/05/31 05:39:33;;;;;;;17.00;8.65;;;;;;;19.64;61.00;95045.28;4984658;28;20233;-68
2022/05/31 05:41:58;;;;;;;8.57;7.35;;;;;;;19.68;61.28;95053.72;4998289;28;20226;-63
2022/05/31 05:44:26;;;;;;;11.00;7.90;;;;;;;19.82;61.09;95053.50;4985573;28;20233;-67
2022/05/31 05:46:51;;;;;;;10.02;7.28;;;;;;;19.80;61.10;95050.19;4984279;28;20238;-68
2022/05/31 05:49:17;;;;;;;10.88;6.90;;;;;;;19.89;61.24;95057.97;4991059;28;20215;-63
2022/05/31 05:51:44;;;;;;;11.30;7.15;;;;;;;19.85;61.36;95057.59;4983710;28;20260;-68
2022/05/31 05:54:10;;;;;;;9.18;6.97;;;;;;;20.00;60.06;95052.84;4984264;28;20234;-64
2022/05/31 05:56:35;;;;;;;7.38;6.68;;;;;;;20.03;60.00;95057.75;4987004;28;20227;-64
2022/05/31 05:59:01;;;;;;;10.32;7.15;;;;;;;20.04;60.14;95055.91;4986938;28;20226;-67
2022/05/31 06:01:35;;;;;;;10.77;7.28;;;;;;;20.16;60.39;95059.59;4991158;28;20234;-63
2022/05/31 06:04:34;;;;;;;14.10;6.93;;;;;;;20.30;59.55;95065.69;4981089;28;20221;-63
2022/05/31 06:07:29;;;;;;;10.80;7.50;;;;;;;20.28;59.08;95067.75;4988957;28;20293;-68
2022/05/31 06:10:00;;;;;;;12.50;7.15;;;;;;;20.24;59.00;95066.53;4890382;29;20265;-62
2022/05/31 06:12:33;;;;;;;10.20;7.50;;;;;;;20.27;59.03;95061.59;4889868;29;20233;-62
2022/05/31 06:15:05;;;;;;;10.93;6.97;;;;;;;20.40;59.15;95062.59;4886748;29;20237;-62
2022/05/31 06:17:39;;;;;;;9.32;7.97;;;;;;;20.37;58.72;95055.81;4905047;29;20241;-63
2022/05/31 06:20:07;;;;;;;9.82;7.72;;;;;;;20.34;58.98;95061.59;4889325;29;20236;-65
2022/05/31 06:22:41;;;;;;;12.93;8.10;;;;;;;20.45;59.13;95058.25;4908199;29;20222;-66
2022/05/31 06:25:08;;;;;;;11.05;8.68;;;;;;;20.59;58.18;95058.22;4905509;29;20210;-64
2022/05/31 06:27:34;;;;;;;14.35;8.45;;;;;;;20.63;58.28;95052.22;4864879;29;20492;-66
2022/05/31 06:29:59;;;;;;;11.23;8.32;;;;;;;20.84;57.62;95060.94;4896617;29;20260;-66
2022/05/31 06:32:25;;;;;;;9.73;7.40;;;;;;;20.84;56.93;95060.94;4887963;29;20244;-62
2022/05/31 06:34:50;;;;;;;10.68;7.75;;;;;;;20.71;57.02;95053.81;4902208;29;20230;-62
2022/05/31 06:37:17;;;;;;;9.90;7.07;;;;;;;20.69;57.13;95048.72;4904468;29;20206;-66
2022/05/31 06:39:44;;;;;;;9.52;7.47;;;;;;;20.73;57.22;95051.75;4905334;29;20237;-64
2022/05/31 06:42:11;;;;;;;9.23;7.65;;;;;;;20.92;57.45;95048.16;4905141;29;20222;-60
2022/05/31 06:44:40;;;;;;;10.30;7.85;;;;;;;20.99;56.35;95047.31;4891168;29;20230;-63
2022/05/31 06:47:06;;;;;;;8.68;7.68;;;;;;;20.99;56.87;95040.09;4939634;28;20234;-67
2022/05/31 06:49:33;;;;;;;13.45;8.93;;;;;;;21.12;56.94;95052.56;4973796;28;20587;-60
2022/05/31 06:57:35;;;;;;;12.60;9.30;;;;;;;21.13;56.02;95049.66;4982127;28;20305;-59
2022/05/31 07:00:06;;;;;;;11.45;10.18;;;;;;;21.02;56.17;95042.34;4981624;28;20220;-63
2022/05/31 07:02:32;;;;;;;14.23;9.50;;;;;;;21.11;55.76;95046.38;4981475;28;20227;-65
2022/05/31 07:04:58;;;;;;;15.52;12.23;;;;;;;21.24;55.73;95048.13;4972575;28;20226;-62
2022/05/31 07:07:23;;;;;;;15.43;9.82;;;;;;;21.29;55.71;95048.31;4984469;28;20238;-62
2022/05/31 07:09:49;;;;;;;11.43;10.05;;;;;;;21.23;56.44;95043.03;4962508;28;20207;-68
2022/05/31 07:12:15;;;;;;;12.77;9.82;;;;;;;21.34;55.53;95042.31;4978680;28;20223;-63
2022/05/31 07:14:40;;;;;;;15.32;10.10;;;;;;;21.53;54.94;95038.69;4967047;28;20331;-67
2022/05/31 07:17:05;;;;;;;12.75;10.60;;;;;;;21.55;55.04;95039.28;4985112;28;20227;-66
2022/05/31 07:19:32;;;;;;;17.65;10.75;;;;;;;21.65;54.92;95037.97;4961514;28;20211;-67
2022/05/31 07:21:59;;;;;;;13.90;11.13;;;;;;;21.66;55.24;95042.28;4973654;28;20217;-68
2022/05/31 07:24:25;;;;;;;15.95;10.45;;;;;;;21.69;54.66;95039.16;4969538;28;20223;-64
2022/05/31 07:26:51;;;;;;;15.00;9.23;;;;;;;21.77;54.67;95031.66;4963995;28;20258;-67
2022/05/31 07:29:16;;;;;;;13.48;9.50;;;;;;;21.89;54.50;95047.00;4963973;28;20251;-66
2022/05/31 07:31:44;;;;;;;12.95;9.57;;;;;;;21.94;53.38;95047.97;4964947;28;20235;-70
2022/05/31 07:34:14;;;;;;;11.38;8.35;;;;;;;21.98;53.20;95034.97;4979946;28;20294;-63
2022/05/31 07:36:41;;;;;;;11.65;8.90;;;;;;;22.06;52.67;95044.56;4979251;28;20322;-63
2022/05/31 07:39:11;;;;;;;9.93;8.07;;;;;;;22.09;52.84;95039.56;4981834;28;20219;-66
2022/05/31 07:41:39;;;;;;;12.77;8.98;;;;;;;22.17;52.46;95043.81;4982464;28;20285;-64
2022/05/31 07:44:05;;;;;;;13.00;8.32;;;;;;;22.11;52.22;95039.38;4976362;28;20221;-67
2022/05/31 07:46:31;;;;;;;10.88;7.85;;;;;;;22.16;52.41;95032.28;4977019;28;20223;-65
2022/05/31 07:48:57;;;;;;;13.35;8.60;;;;;;;22.22;52.48;95023.41;4977559;28;20203;-62
2022/05/31 07:51:24;;;;;;;10.32;7.05;;;;;;;22.30;52.37;95032.19;4987831;28;20331;-66
2022/05/31 07:53:51;;;;;;;9.82;6.68;;;;;;;22.35;50.86;95017.06;4980266;28;20231;-61
2022/05/31 07:56:16;;;;;;;9.93;6.22;;;;;;;22.42;50.27;95022.31;4978690;28;20211;-62
2022/05/31 07:58:42;;;;;;;9.00;6.90;;;;;;;22.53;50.00;95015.38;4976642;28;20232;-63
2022/05/31 08:01:13;;;;;;;13.85;6.30;;;;;;;22.39;49.49;95023.59;4977040;28;20251;-63
2022/05/31 08:03:39;;;;;;;10.35;6.85;;;;;;;22.37;49.69;95027.53;4976245;28;20228;-64
2022/05/31 08:06:10;;;;;;;9.63;7.05;;;;;;;22.44;50.11;95031.78;4977957;28;20250;-62
2022/05/31 08:08:36;;;;;;;10.32;6.60;;;;;;;22.51;49.19;95030.88;4972787;28;20238;-63
2022/05/31 08:11:04;;;;;;;12.70;7.40;;;;;;;22.60;49.43;95024.97;4966745;28;20254;-66
2022/05/31 08:13:29;;;;;;;9.20;7.03;;;;;;;22.65;49.49;95022.44;4965989;28;20228;-63
2022/05/31 08:15:58;;;;;;;10.75;6.82;;;;;;;22.74;49.46;95020.25;4967695;28;20210;-64
2022/05/31 08:18:23;;;;;;;10.75;7.03;;;;;;;22.67;49.17;95017.69;4963007;28;20237;-62
2022/05/31 08:20:48;;;;;;;10.32;6.85;;;;;;;22.73;49.25;95021.31;4973212;28;20223;-63
2022/05/31 08:23:14;;;;;;;10.73;6.18;;;;;;;22.78;48.77;95012.59;4964660;28;20318;-64
2022/05/31 08:25:40;;;;;;;8.13;6.75;;;;;;;22.96;49.56;95017.94;4966608;28;20294;-63
2022/05/31 08:28:05;;;;;;;8.23;6.20;;;;;;;22.89;49.12;95017.97;4949317;28;20211;-62
2022/05/31 08:30:31;;;;;;;10.07;6.38;;;;;;;23.06;49.18;95018.16;4965378;28;20783;-62
2022/05/31 08:32:57;;;;;;;10.95;5.85;;;;;;;23.15;48.57;95013.31;4960238;28;20226;-66
2022/05/31 08:35:22;;;;;;;9.20;6.57;;;;;;;23.28;47.13;95013.09;4966971;28;20228;-66
2022/05/31 08:37:50;;;;;;;9.40;6.07;;;;;;;23.22;47.20;95010.50;4966241;28;20235;-65
2022/05/31 08:40:16;;;;;;;7.75;5.68;;;;;;;23.27;47.56;95011.44;4983710;28;20238;-65
2022/05/31 08:42:49;;;;;;;8.23;5.75;;;;;;;23.31;46.90;95001.09;4964276;28;20716;-66
2022/05/31 08:45:27;;;;;;;9.77;5.63;;;;;;;23.36;47.82;95003.06;4969484;28;20226;-66
2022/05/31 08:48:03;;;;;;;7.50;6.40;;;;;;;23.46;47.40;95004.13;4967754;28;20223;-62
2022/05/31 08:53:33;;;;;;;8.52;5.95;;;;;;;23.46;46.28;94998.75;4988246;28;20286;-65
2022/05/31 08:59:04;;;;;;;9.05;5.25;;;;;;;23.65;44.83;94993.28;4983957;28;20639;-67
2022/05/31 09:01:36;;;;;;;9.18;4.47;;;;;;;23.72;44.94;94997.50;4970663;28;20387;-66
2022/05/31 09:04:23;;;;;;;10.05;4.90;;;;;;;23.89;44.13;94986.06;4972498;28;20215;-65
2022/05/31 09:06:56;;;;;;;7.57;4.32;;;;;;;23.85;44.40;94992.97;4965415;28;20259;-66
2022/05/31 09:09:30;;;;;;;8.20;4.90;;;;;;;23.93;44.14;94992.59;4969380;28;20230;-63
2022/05/31 09:12:02;;;;;;;10.90;5.85;;;;;;;23.93;43.85;94988.03;4968526;28;20282;-65
2022/05/31 09:14:43;;;;;;;13.98;7.72;;;;;;;23.97;43.86;94983.00;4969417;28;20599;-68
2022/05/31 09:17:35;;;;;;;8.55;6.30;;;;;;;24.08;43.71;94990.22;4965949;28;20267;-61
2022/05/31 09:20:07;;;;;;;10.77;5.45;;;;;;;24.03;43.81;94987.44;4984322;28;20299;-61
2022/05/31 09:22:33;;;;;;;8.75;5.28;;;;;;;24.03;44.73;94986.63;4973695;28;20285;-60
2022/05/31 09:24:58;;;;;;;8.63;5.00;;;;;;;24.24;44.44;94983.28;4968892;28;20207;-62
2022/05/31 09:27:42;;;;;;;7.95;4.53;;;;;;;24.34;43.17;94982.69;4967162;28;20246;-66
2022/05/31 09:30:25;;;;;;;8.38;5.18;;;;;;;24.41;43.23;94978.00;4966729;28;20247;-65
2022/05/31 09:33:32;;;;;;;7.22;4.80;;;;;;;24.45;41.58;94979.19;4958274;28;20234;-68
2022/05/31 09:36:12;;;;;;;8.32;5.10;;;;;;;24.66;41.78;94977.69;4922487;29;20229;-62
2022/05/31 09:39:05;;;;;;;7.70;5.00;;;;;;;24.78;42.82;94980.31;4928128;29;20233;-63
2022/05/31 09:41:39;;;;;;;8.23;5.00;;;;;;;24.91;40.92;94977.31;4927548;29;20244;-63
2022/05/31 09:44:11;;;;;;;7.45;5.05;;;;;;;25.01;40.66;94974.81;4913402;29;20237;-63
2022/05/31 09:46:51;;;;;;;7.38;5.07;;;;;;;25.16;40.16;94974.31;4926372;29;20315;-63
2022/05/31 09:49:26;;;;;;;7.88;4.78;;;;;;;25.29;39.36;94968.59;4909946;29;20197;-61
2022/05/31 09:51:52;;;;;;;8.10;5.03;;;;;;;25.51;39.49;94975.94;4928427;29;20714;-63
2022/05/31 09:57:13;;;;;;;6.90;4.57;;;;;;;25.69;39.72;94974.84;4928783;29;20300;-64
2022/05/31 09:59:49;;;;;;;7.75;4.50;;;;;;;25.78;37.74;94970.66;4912428;29;20233;-60
2022/05/31 10:02:30;;;;;;;9.52;5.10;;;;;;;25.86;37.49;94966.75;4927618;29;20248;-61
2022/05/31 10:05:21;;;;;;;7.72;4.38;;;;;;;25.84;39.13;94966.19;4925490;29;20262;-64
2022/05/31 10:07:48;;;;;;;6.35;4.25;;;;;;;26.16;38.18;94969.03;4910385;29;20595;-65
2022/05/31 10:10:48;;;;;;;8.90;4.60;;;;;;;26.20;36.76;94962.09;4912855;29;20220;-61
2022/05/31 10:13:33;;;;;;;5.53;3.90;;;;;;;26.37;38.69;94960.13;4846240;29;20270;-63
2022/05/31 10:16:11;;;;;;;6.95;4.45;;;;;;;26.66;38.73;94964.53;4872553;29;20732;-60
2022/05/31 10:18:56;;;;;;;8.77;4.25;;;;;;;26.75;37.96;94955.72;4887681;29;20227;-64
2022/05/31 10:21:43;;;;;;;8.75;4.68;;;;;;;26.87;37.13;94949.38;4868920;29;20726;-64
2022/05/31 10:24:19;;;;;;;11.18;4.82;;;;;;;26.65;36.67;94952.94;4880210;29;20230;-66
2022/05/31 10:27:05;;;;;;;10.20;4.15;;;;;;;27.10;36.17;94949.00;4861959;29;20374;-68
2022/05/31 10:29:44;;;;;;;7.63;4.93;;;;;;;27.42;36.32;94948.22;4868488;29;20226;-64
2022/05/31 10:32:28;;;;;;;8.45;4.40;;;;;;;27.34;35.42;94948.69;4883820;29;20223;-66
2022/05/31 10:35:17;;;;;;;6.97;3.92;;;;;;;27.55;35.96;94936.97;4882988;29;20432;-64
2022/05/31 10:38:05;;;;;;;6.22;3.97;;;;;;;27.44;34.94;94943.38;4882226;29;20278;-65
2022/05/31 10:40:37;;;;;;;9.88;4.40;;;;;;;27.34;35.75;94933.31;4880883;29;20259;-64
2022/05/31 10:43:43;;;;;;;7.40;4.60;;;;;;;27.39;35.62;94930.66;4869193;29;20560;-64
2022/05/31 10:46:13;;;;;;;5.57;4.10;;;;;;;27.35;35.47;94926.06;4809637;29;20763;-63
2022/05/31 10:48:47;;;;;;;6.82;4.55;;;;;;;27.59;34.99;94919.19;4803897;29;20291;-67
2022/05/31 10:51:32;;;;;;;8.02;4.18;;;;;;;27.51;35.63;94924.28;4881846;29;20414;-67
2022/05/31 10:54:28;;;;;;;5.30;4.43;;;;;;;27.74;34.58;94917.63;4882268;29;20257;-63
2022/05/31 10:57:03;;;;;;;4.97;4.05;;;;;;;27.97;34.42;94914.56;4884901;29;20209;-62
2022/05/31 10:59:44;;;;;;;6.38;4.10;;;;;;;28.04;33.42;94915.13;4883043;29;20241;-64
2022/05/31 11:02:32;;;;;;;6.75;4.10;;;;;;;28.29;32.30;94916.31;4882437;29;20377;-62
2022/05/31 11:05:07;;;;;;;7.15;3.67;;;;;;;28.31;32.35;94908.75;4862340;29;20231;-63
2022/05/31 11:14:18;;;;;;;8.75;4.18;;;;;;;29.10;30.56;94890.50;4788724;29;20282;-63
2022/05/31 11:17:16;;;;;;;5.68;3.92;;;;;;;29.41;30.44;94894.81;4787397;29;20230;-63
2022/05/31 11:20:11;;;;;;;6.95;4.13;;;;;;;29.50;29.86;94886.94;4781253;29;20238;-68
2022/05/31 11:23:17;;;;;;;8.57;3.83;;;;;;;29.78;30.40;94893.69;4807724;29;20220;-63
2022/05/31 11:26:01;;;;;;;6.35;4.07;;;;;;;29.99;27.76;94883.59;4746974;30;20309;-63
2022/05/31 11:28:54;;;;;;;8.68;3.90;;;;;;;30.08;27.88;94878.41;4745796;30;20912;-65
2022/05/31 11:31:26;;;;;;;3.85;3.33;;;;;;;29.86;27.92;94882.28;4746716;30;20250;-63
2022/05/31 11:34:06;;;;;;;4.50;3.60;;;;;;;29.76;28.05;94868.75;4745719;30;20258;-65
2022/05/31 11:37:08;;;;;;;7.25;4.30;;;;;;;30.07;28.95;94874.06;4760335;29;20255;-68
2022/05/31 11:40:16;;;;;;;4.22;3.22;;;;;;;30.22;28.10;94873.19;4744960;30;20341;-65
2022/05/31 11:43:02;;;;;;;3.90;3.10;;;;;;;30.01;29.23;94875.97;4738507;30;20306;-67
2022/05/31 11:45:42;;;;;;;5.63;3.38;;;;;;;29.85;29.54;94872.50;4759291;30;20239;-65
2022/05/31 11:48:25;;;;;;;6.93;3.10;;;;;;;29.73;28.38;94861.19;4807388;29;20236;-66
2022/05/31 11:51:24;;;;;;;7.50;3.45;;;;;;;29.62;28.95;94854.16;4828173;29;20255;-66
2022/05/31 11:53:56;;;;;;;8.02;3.30;;;;;;;29.63;29.12;94858.47;4827579;29;20247;-67
2022/05/31 11:56:28;;;;;;;9.18;2.92;;;;;;;29.95;27.05;94857.31;4828744;29;20233;-65
2022/05/31 11:59:06;;;;;;;5.03;2.75;;;;;;;30.05;27.29;94855.38;4842618;29;20241;-68
2022/05/31 12:01:44;;;;;;;4.47;3.17;;;;;;;30.18;27.03;94853.97;4899451;29;20328;-65
2022/05/31 12:04:33;;;;;;;3.17;2.85;;;;;;;30.25;27.17;94851.75;4963211;28;20251;-64
2022/05/31 12:08:07;;;;;;;4.00;3.50;;;;;;;30.45;28.08;94847.31;5034587;27;20585;-66
2022/05/31 12:10:41;;;;;;;4.35;3.25;;;;;;;30.34;27.98;94854.72;4978268;28;20223;-66
2022/05/31 12:13:10;;;;;;;5.30;2.75;;;;;;;30.32;29.13;94854.97;4947464;28;20683;-69
2022/05/31 12:15:39;;;;;;;5.15;3.38;;;;;;;30.18;27.24;94851.25;4976594;28;20293;-69